sensor_id;sensor_type;location;lat;lon;timestamp;P1;durP1;ratioP1;P2;durP2;ratioP2
1410;SDS011;700;51.906;8.404;2023-04-24T00:03:49;1.30;;;0.70;;
1410;SDS011;700;51.906;8.404;2023-04-24T00:08:50;1.20;;;0.80;;
1410;SDS011;700;51.906;8.404;2023-04-24T00:13:53;2.23;;;1.00;;
1410;SDS011;700;51.906;8.404;2023-04-24T00:18:54;1.50;;;0.90;;
1410;SDS011;700;51.906;8.404;2023-04-24T00:23:54;1.37;;;0.87;;
1410;SDS011;700;51.906;8.404;2023-04-24T00:28:58;2.90;;;0.97;;
1410;SDS011;700;51.906;8.404;2023-04-24T00:33:58;1.40;;;0.90;;
1410;SDS011;700;51.906;8.404;2023-04-24T00:39:01;1.60;;;1.00;;
1410;SDS011;700;51.906;8.404;2023-04-24T00:44:02;2.30;;;1.10;;
1410;SDS011;700;51.906;8.404;2023-04-24T00:49:02;1.67;;;1.00;;
1410;SDS011;700;51.906;8.404;2023-04-24T00:54:04;2.10;;;1.17;;
1410;SDS011;700;51.906;8.404;2023-04-24T00:59:05;1.93;;;1.00;;
1410;SDS011;700;51.906;8.404;2023-04-24T01:04:09;1.57;;;1.00;;
1410;SDS011;700;51.906;8.404;2023-04-24T01:09:11;2.30;;;1.20;;
1410;SDS011;700;51.906;8.404;2023-04-24T01:14:14;1.30;;;0.90;;
1410;SDS011;700;51.906;8.404;2023-04-24T01:19:15;1.50;;;1.10;;
1410;SDS011;700;51.906;8.404;2023-04-24T01:24:18;2.20;;;1.00;;
1410;SDS011;700;51.906;8.404;2023-04-24T01:29:21;2.50;;;1.90;;
1410;SDS011;700;51.906;8.404;2023-04-24T01:34:26;1.90;;;1.00;;
1410;SDS011;700;51.906;8.404;2023-04-24T01:39:30;1.63;;;1.10;;
1410;SDS011;700;51.906;8.404;2023-04-24T01:44:31;1.70;;;1.20;;
1410;SDS011;700;51.906;8.404;2023-04-24T01:49:35;1.80;;;1.20;;
1410;SDS011;700;51.906;8.404;2023-04-24T01:54:40;1.67;;;1.20;;
1410;SDS011;700;51.906;8.404;2023-04-24T01:59:40;2.10;;;1.30;;
1410;SDS011;700;51.906;8.404;2023-04-24T02:04:41;3.10;;;0.90;;
1410;SDS011;700;51.906;8.404;2023-04-24T02:09:44;1.77;;;1.30;;
1410;SDS011;700;51.906;8.404;2023-04-24T02:14:45;2.20;;;1.60;;
1410;SDS011;700;51.906;8.404;2023-04-24T02:19:46;1.53;;;1.20;;
1410;SDS011;700;51.906;8.404;2023-04-24T02:24:51;4.10;;;1.20;;
1410;SDS011;700;51.906;8.404;2023-04-24T02:29:54;2.63;;;1.00;;
1410;SDS011;700;51.906;8.404;2023-04-24T02:34:55;2.63;;;1.53;;
1410;SDS011;700;51.906;8.404;2023-04-24T02:39:55;2.17;;;1.10;;
1410;SDS011;700;51.906;8.404;2023-04-24T02:44:56;3.63;;;2.03;;
1410;SDS011;700;51.906;8.404;2023-04-24T02:49:56;4.67;;;1.63;;
1410;SDS011;700;51.906;8.404;2023-04-24T02:54:57;2.00;;;1.40;;
1410;SDS011;700;51.906;8.404;2023-04-24T03:00:00;2.77;;;1.83;;
1410;SDS011;700;51.906;8.404;2023-04-24T03:05:03;1.70;;;1.20;;
1410;SDS011;700;51.906;8.404;2023-04-24T03:10:04;3.00;;;1.57;;
1410;SDS011;700;51.906;8.404;2023-04-24T03:15:08;2.20;;;1.77;;
1410;SDS011;700;51.906;8.404;2023-04-24T03:20:11;1.90;;;1.40;;
1410;SDS011;700;51.906;8.404;2023-04-24T03:25:12;3.13;;;1.43;;
1410;SDS011;700;51.906;8.404;2023-04-24T03:30:13;5.00;;;1.37;;
1410;SDS011;700;51.906;8.404;2023-04-24T03:35:13;1.40;;;1.20;;
1410;SDS011;700;51.906;8.404;2023-04-24T03:40:16;2.03;;;1.40;;
1410;SDS011;700;51.906;8.404;2023-04-24T03:45:24;1.77;;;1.40;;
1410;SDS011;700;51.906;8.404;2023-04-24T03:50:27;2.30;;;1.87;;
1410;SDS011;700;51.906;8.404;2023-04-24T03:55:29;2.67;;;2.20;;
1410;SDS011;700;51.906;8.404;2023-04-24T04:00:29;2.83;;;2.30;;
1410;SDS011;700;51.906;8.404;2023-04-24T04:05:33;2.33;;;1.90;;
1410;SDS011;700;51.906;8.404;2023-04-24T04:10:36;3.37;;;2.70;;
1410;SDS011;700;51.906;8.404;2023-04-24T04:15:36;3.20;;;2.27;;
1410;SDS011;700;51.906;8.404;2023-04-24T04:20:37;3.37;;;2.33;;
1410;SDS011;700;51.906;8.404;2023-04-24T04:25:37;4.33;;;2.20;;
1410;SDS011;700;51.906;8.404;2023-04-24T04:30:38;2.70;;;2.37;;
1410;SDS011;700;51.906;8.404;2023-04-24T04:35:40;2.47;;;1.77;;
1410;SDS011;700;51.906;8.404;2023-04-24T04:40:41;3.00;;;2.67;;
1410;SDS011;700;51.906;8.404;2023-04-24T04:45:44;5.60;;;5.00;;
1410;SDS011;700;51.906;8.404;2023-04-24T04:50:44;9.13;;;6.80;;
1410;SDS011;700;51.906;8.404;2023-04-24T04:55:45;9.07;;;6.50;;
1410;SDS011;700;51.906;8.404;2023-04-24T05:00:47;8.20;;;7.00;;
1410;SDS011;700;51.906;8.404;2023-04-24T05:05:50;7.67;;;6.87;;
1410;SDS011;700;51.906;8.404;2023-04-24T05:10:53;10.40;;;8.37;;
1410;SDS011;700;51.906;8.404;2023-04-24T05:15:57;8.53;;;7.70;;
1410;SDS011;700;51.906;8.404;2023-04-24T05:21:01;15.20;;;8.97;;
1410;SDS011;700;51.906;8.404;2023-04-24T05:26:04;10.63;;;9.53;;
1410;SDS011;700;51.906;8.404;2023-04-24T05:31:05;14.23;;;10.67;;
1410;SDS011;700;51.906;8.404;2023-04-24T05:36:06;14.20;;;11.80;;
1410;SDS011;700;51.906;8.404;2023-04-24T05:41:07;12.60;;;11.30;;
1410;SDS011;700;51.906;8.404;2023-04-24T05:46:11;15.03;;;12.03;;
1410;SDS011;700;51.906;8.404;2023-04-24T05:51:12;13.13;;;11.03;;
1410;SDS011;700;51.906;8.404;2023-04-24T05:56:12;13.63;;;11.77;;
1410;SDS011;700;51.906;8.404;2023-04-24T06:01:13;13.03;;;11.73;;
1410;SDS011;700;51.906;8.404;2023-04-24T06:06:19;14.23;;;11.47;;
1410;SDS011;700;51.906;8.404;2023-04-24T06:11:19;14.07;;;10.70;;
1410;SDS011;700;51.906;8.404;2023-04-24T06:16:20;11.87;;;10.00;;
1410;SDS011;700;51.906;8.404;2023-04-24T06:21:21;12.80;;;11.00;;
1410;SDS011;700;51.906;8.404;2023-04-24T06:26:24;13.83;;;10.73;;
1410;SDS011;700;51.906;8.404;2023-04-24T06:31:26;13.07;;;11.63;;
1410;SDS011;700;51.906;8.404;2023-04-24T06:36:27;12.07;;;10.87;;
1410;SDS011;700;51.906;8.404;2023-04-24T06:41:28;13.40;;;12.00;;
1410;SDS011;700;51.906;8.404;2023-04-24T06:46:29;13.03;;;11.00;;
1410;SDS011;700;51.906;8.404;2023-04-24T06:51:29;12.07;;;10.87;;
1410;SDS011;700;51.906;8.404;2023-04-24T06:56:32;10.97;;;9.87;;
1410;SDS011;700;51.906;8.404;2023-04-24T07:01:35;15.67;;;11.33;;
1410;SDS011;700;51.906;8.404;2023-04-24T07:06:36;12.03;;;10.83;;
1410;SDS011;700;51.906;8.404;2023-04-24T07:11:37;12.17;;;11.00;;
1410;SDS011;700;51.906;8.404;2023-04-24T07:16:41;11.17;;;9.23;;
1410;SDS011;700;51.906;8.404;2023-04-24T07:21:45;12.07;;;9.10;;
1410;SDS011;700;51.906;8.404;2023-04-24T07:26:45;9.57;;;8.10;;
1410;SDS011;700;51.906;8.404;2023-04-24T07:31:48;8.10;;;7.30;;
1410;SDS011;700;51.906;8.404;2023-04-24T07:36:49;8.10;;;7.23;;
1410;SDS011;700;51.906;8.404;2023-04-24T07:41:50;7.17;;;6.50;;
1410;SDS011;700;51.906;8.404;2023-04-24T07:46:51;7.40;;;6.70;;
1410;SDS011;700;51.906;8.404;2023-04-24T07:51:51;6.03;;;5.53;;
1410;SDS011;700;51.906;8.404;2023-04-24T07:56:52;5.70;;;5.17;;
1410;SDS011;700;51.906;8.404;2023-04-24T08:01:55;6.30;;;5.70;;
1410;SDS011;700;51.906;8.404;2023-04-24T08:06:56;7.90;;;5.03;;
1410;SDS011;700;51.906;8.404;2023-04-24T08:11:56;6.10;;;4.40;;
1410;SDS011;700;51.906;8.404;2023-04-24T08:16:59;5.23;;;4.57;;
1410;SDS011;700;51.906;8.404;2023-04-24T08:22:05;3.93;;;3.63;;
1410;SDS011;700;51.906;8.404;2023-04-24T08:27:06;4.63;;;3.17;;
1410;SDS011;700;51.906;8.404;2023-04-24T08:32:06;3.73;;;3.43;;
1410;SDS011;700;51.906;8.404;2023-04-24T08:37:07;3.30;;;3.00;;
1410;SDS011;700;51.906;8.404;2023-04-24T08:42:08;3.50;;;3.20;;
1410;SDS011;700;51.906;8.404;2023-04-24T08:47:09;4.70;;;2.80;;
1410;SDS011;700;51.906;8.404;2023-04-24T08:52:12;5.07;;;3.13;;
1410;SDS011;700;51.906;8.404;2023-04-24T08:57:14;4.90;;;3.40;;
1410;SDS011;700;51.906;8.404;2023-04-24T09:02:20;5.70;;;3.43;;
1410;SDS011;700;51.906;8.404;2023-04-24T09:07:22;3.73;;;2.50;;
1410;SDS011;700;51.906;8.404;2023-04-24T09:12:26;3.20;;;2.70;;
1410;SDS011;700;51.906;8.404;2023-04-24T09:17:30;3.03;;;2.50;;
1410;SDS011;700;51.906;8.404;2023-04-24T09:22:31;3.13;;;2.20;;
1410;SDS011;700;51.906;8.404;2023-04-24T09:27:34;3.30;;;2.10;;
1410;SDS011;700;51.906;8.404;2023-04-24T09:32:34;2.10;;;1.70;;
1410;SDS011;700;51.906;8.404;2023-04-24T09:37:39;2.40;;;2.07;;
1410;SDS011;700;51.906;8.404;2023-04-24T09:42:51;2.80;;;1.50;;
1410;SDS011;700;51.906;8.404;2023-04-24T09:47:53;2.40;;;1.83;;
1410;SDS011;700;51.906;8.404;2023-04-24T09:52:56;1.87;;;1.40;;
1410;SDS011;700;51.906;8.404;2023-04-24T09:57:59;1.83;;;1.40;;
1410;SDS011;700;51.906;8.404;2023-04-24T10:03:05;2.10;;;1.47;;
1410;SDS011;700;51.906;8.404;2023-04-24T10:08:06;1.97;;;0.90;;
1410;SDS011;700;51.906;8.404;2023-04-24T10:13:09;1.77;;;1.30;;
1410;SDS011;700;51.906;8.404;2023-04-24T10:18:11;3.97;;;1.37;;
1410;SDS011;700;51.906;8.404;2023-04-24T10:23:11;2.30;;;1.60;;
1410;SDS011;700;51.906;8.404;2023-04-24T10:28:12;2.10;;;1.70;;
1410;SDS011;700;51.906;8.404;2023-04-24T10:33:14;2.30;;;1.80;;
1410;SDS011;700;51.906;8.404;2023-04-24T10:38:16;2.17;;;1.87;;
1410;SDS011;700;51.906;8.404;2023-04-24T10:43:24;2.30;;;1.67;;
1410;SDS011;700;51.906;8.404;2023-04-24T10:48:27;1.40;;;1.27;;
1410;SDS011;700;51.906;8.404;2023-04-24T10:53:28;1.80;;;1.30;;
1410;SDS011;700;51.906;8.404;2023-04-24T10:58:40;1.97;;;1.77;;
1410;SDS011;700;51.906;8.404;2023-04-24T11:03:50;2.30;;;1.60;;
1410;SDS011;700;51.906;8.404;2023-04-24T11:08:58;2.30;;;2.10;;
1410;SDS011;700;51.906;8.404;2023-04-24T11:14:06;1.70;;;1.60;;
1410;SDS011;700;51.906;8.404;2023-04-24T11:24:26;3.17;;;2.40;;
1410;SDS011;700;51.906;8.404;2023-04-24T11:34:47;3.83;;;3.00;;
1410;SDS011;700;51.906;8.404;2023-04-24T11:39:50;4.07;;;3.00;;
1410;SDS011;700;51.906;8.404;2023-04-24T11:44:53;3.40;;;2.37;;
1410;SDS011;700;51.906;8.404;2023-04-24T11:49:57;3.07;;;2.53;;
1410;SDS011;700;51.906;8.404;2023-04-24T11:55:01;2.80;;;2.50;;
1410;SDS011;700;51.906;8.404;2023-04-24T12:00:02;3.50;;;2.30;;
1410;SDS011;700;51.906;8.404;2023-04-24T12:05:05;2.93;;;2.37;;
1410;SDS011;700;51.906;8.404;2023-04-24T12:10:06;4.50;;;2.30;;
1410;SDS011;700;51.906;8.404;2023-04-24T12:15:08;3.83;;;2.53;;
1410;SDS011;700;51.906;8.404;2023-04-24T12:20:09;3.83;;;2.93;;
1410;SDS011;700;51.906;8.404;2023-04-24T12:25:11;3.60;;;2.77;;
1410;SDS011;700;51.906;8.404;2023-04-24T12:30:12;4.80;;;3.33;;
1410;SDS011;700;51.906;8.404;2023-04-24T12:35:21;3.87;;;3.40;;
1410;SDS011;700;51.906;8.404;2023-04-24T12:40:26;4.67;;;3.37;;
1410;SDS011;700;51.906;8.404;2023-04-24T12:45:26;4.00;;;3.33;;
1410;SDS011;700;51.906;8.404;2023-04-24T12:50:28;4.50;;;3.60;;
1410;SDS011;700;51.906;8.404;2023-04-24T12:55:28;4.80;;;3.50;;
1410;SDS011;700;51.906;8.404;2023-04-24T13:00:31;9.47;;;5.27;;
1410;SDS011;700;51.906;8.404;2023-04-24T13:05:32;7.50;;;5.53;;
1410;SDS011;700;51.906;8.404;2023-04-24T13:10:35;8.90;;;5.03;;
1410;SDS011;700;51.906;8.404;2023-04-24T13:15:36;11.37;;;7.23;;
1410;SDS011;700;51.906;8.404;2023-04-24T13:20:37;7.70;;;5.50;;
1410;SDS011;700;51.906;8.404;2023-04-24T13:25:38;11.57;;;7.23;;
1410;SDS011;700;51.906;8.404;2023-04-24T13:30:39;15.57;;;6.63;;
1410;SDS011;700;51.906;8.404;2023-04-24T13:35:39;9.40;;;5.93;;
1410;SDS011;700;51.906;8.404;2023-04-24T13:40:40;11.37;;;6.80;;
1410;SDS011;700;51.906;8.404;2023-04-24T13:45:41;10.17;;;6.67;;
1410;SDS011;700;51.906;8.404;2023-04-24T13:50:42;11.83;;;6.17;;
1410;SDS011;700;51.906;8.404;2023-04-24T13:55:43;12.93;;;6.60;;
1410;SDS011;700;51.906;8.404;2023-04-24T14:00:48;9.37;;;5.07;;
1410;SDS011;700;51.906;8.404;2023-04-24T14:05:49;8.80;;;6.17;;
1410;SDS011;700;51.906;8.404;2023-04-24T14:10:50;12.73;;;7.77;;
1410;SDS011;700;51.906;8.404;2023-04-24T14:15:53;10.00;;;6.30;;
1410;SDS011;700;51.906;8.404;2023-04-24T14:20:53;8.70;;;5.63;;
1410;SDS011;700;51.906;8.404;2023-04-24T14:25:54;7.47;;;5.27;;
1410;SDS011;700;51.906;8.404;2023-04-24T14:30:55;11.93;;;5.53;;
1410;SDS011;700;51.906;8.404;2023-04-24T14:35:56;8.23;;;4.27;;
1410;SDS011;700;51.906;8.404;2023-04-24T14:40:57;9.20;;;5.43;;
1410;SDS011;700;51.906;8.404;2023-04-24T14:45:57;8.40;;;4.27;;
1410;SDS011;700;51.906;8.404;2023-04-24T14:50:58;7.10;;;3.80;;
1410;SDS011;700;51.906;8.404;2023-04-24T14:56:01;4.70;;;3.30;;
1410;SDS011;700;51.906;8.404;2023-04-24T15:01:02;5.73;;;3.03;;
1410;SDS011;700;51.906;8.404;2023-04-24T15:06:03;6.10;;;3.90;;
1410;SDS011;700;51.906;8.404;2023-04-24T15:11:04;8.80;;;3.77;;
1410;SDS011;700;51.906;8.404;2023-04-24T15:16:05;4.00;;;2.80;;
1410;SDS011;700;51.906;8.404;2023-04-24T15:21:06;9.17;;;3.43;;
1410;SDS011;700;51.906;8.404;2023-04-24T15:26:07;4.00;;;2.13;;
1410;SDS011;700;51.906;8.404;2023-04-24T15:31:07;9.83;;;2.53;;
1410;SDS011;700;51.906;8.404;2023-04-24T15:36:08;5.00;;;2.10;;
1410;SDS011;700;51.906;8.404;2023-04-24T15:41:11;3.80;;;2.50;;
1410;SDS011;700;51.906;8.404;2023-04-24T15:46:12;3.63;;;2.10;;
1410;SDS011;700;51.906;8.404;2023-04-24T15:51:13;4.87;;;2.53;;
1410;SDS011;700;51.906;8.404;2023-04-24T15:56:16;4.97;;;2.33;;
1410;SDS011;700;51.906;8.404;2023-04-24T16:01:17;4.60;;;3.20;;
1410;SDS011;700;51.906;8.404;2023-04-24T16:06:20;4.47;;;2.60;;
1410;SDS011;700;51.906;8.404;2023-04-24T16:11:24;2.90;;;2.30;;
1410;SDS011;700;51.906;8.404;2023-04-24T16:16:25;4.60;;;2.30;;
1410;SDS011;700;51.906;8.404;2023-04-24T16:21:29;4.93;;;2.10;;
1410;SDS011;700;51.906;8.404;2023-04-24T16:26:30;6.13;;;2.23;;
1410;SDS011;700;51.906;8.404;2023-04-24T16:31:31;5.33;;;2.07;;
1410;SDS011;700;51.906;8.404;2023-04-24T16:36:32;7.70;;;2.33;;
1410;SDS011;700;51.906;8.404;2023-04-24T16:41:37;4.27;;;2.20;;
1410;SDS011;700;51.906;8.404;2023-04-24T16:46:38;3.00;;;2.00;;
1410;SDS011;700;51.906;8.404;2023-04-24T16:51:38;6.10;;;3.50;;
1410;SDS011;700;51.906;8.404;2023-04-24T16:56:39;2.67;;;2.07;;
1410;SDS011;700;51.906;8.404;2023-04-24T17:01:40;4.60;;;2.10;;
1410;SDS011;700;51.906;8.404;2023-04-24T17:06:41;5.20;;;2.57;;
1410;SDS011;700;51.906;8.404;2023-04-24T17:11:41;4.50;;;2.10;;
1410;SDS011;700;51.906;8.404;2023-04-24T17:16:42;3.73;;;2.43;;
1410;SDS011;700;51.906;8.404;2023-04-24T17:21:44;4.77;;;2.30;;
1410;SDS011;700;51.906;8.404;2023-04-24T17:26:50;4.23;;;2.40;;
1410;SDS011;700;51.906;8.404;2023-04-24T17:31:53;3.97;;;2.37;;
1410;SDS011;700;51.906;8.404;2023-04-24T17:36:58;5.20;;;2.70;;
1410;SDS011;700;51.906;8.404;2023-04-24T17:41:59;4.80;;;2.63;;
1410;SDS011;700;51.906;8.404;2023-04-24T17:47:02;9.33;;;5.87;;
1410;SDS011;700;51.906;8.404;2023-04-24T17:52:04;4.87;;;3.17;;
1410;SDS011;700;51.906;8.404;2023-04-24T17:57:05;9.53;;;2.60;;
1410;SDS011;700;51.906;8.404;2023-04-24T18:02:06;4.83;;;2.70;;
1410;SDS011;700;51.906;8.404;2023-04-24T18:07:07;4.67;;;2.40;;
1410;SDS011;700;51.906;8.404;2023-04-24T18:12:10;4.77;;;2.53;;
1410;SDS011;700;51.906;8.404;2023-04-24T18:17:10;2.97;;;2.10;;
1410;SDS011;700;51.906;8.404;2023-04-24T18:22:13;6.60;;;2.80;;
1410;SDS011;700;51.906;8.404;2023-04-24T18:27:15;6.13;;;2.77;;
1410;SDS011;700;51.906;8.404;2023-04-24T18:32:16;5.73;;;2.83;;
1410;SDS011;700;51.906;8.404;2023-04-24T18:37:16;6.63;;;3.20;;
1410;SDS011;700;51.906;8.404;2023-04-24T18:42:17;6.20;;;3.70;;
1410;SDS011;700;51.906;8.404;2023-04-24T18:47:18;7.50;;;3.53;;
1410;SDS011;700;51.906;8.404;2023-04-24T18:52:18;5.27;;;3.20;;
1410;SDS011;700;51.906;8.404;2023-04-24T18:57:21;8.20;;;3.80;;
1410;SDS011;700;51.906;8.404;2023-04-24T19:02:22;7.87;;;3.70;;
1410;SDS011;700;51.906;8.404;2023-04-24T19:07:23;6.93;;;2.83;;
1410;SDS011;700;51.906;8.404;2023-04-24T19:12:23;9.00;;;3.27;;
1410;SDS011;700;51.906;8.404;2023-04-24T19:17:26;7.20;;;3.40;;
1410;SDS011;700;51.906;8.404;2023-04-24T19:22:30;6.10;;;3.40;;
1410;SDS011;700;51.906;8.404;2023-04-24T19:27:31;13.33;;;3.83;;
1410;SDS011;700;51.906;8.404;2023-04-24T19:32:34;6.33;;;3.30;;
1410;SDS011;700;51.906;8.404;2023-04-24T19:37:35;6.40;;;3.60;;
1410;SDS011;700;51.906;8.404;2023-04-24T19:42:36;5.17;;;3.97;;
1410;SDS011;700;51.906;8.404;2023-04-24T19:47:36;9.93;;;3.90;;
1410;SDS011;700;51.906;8.404;2023-04-24T19:52:40;7.07;;;4.13;;
1410;SDS011;700;51.906;8.404;2023-04-24T19:57:45;9.60;;;4.50;;
1410;SDS011;700;51.906;8.404;2023-04-24T20:02:46;8.03;;;3.67;;
1410;SDS011;700;51.906;8.404;2023-04-24T20:07:49;9.20;;;4.00;;
1410;SDS011;700;51.906;8.404;2023-04-24T20:12:50;9.60;;;5.23;;
1410;SDS011;700;51.906;8.404;2023-04-24T20:17:51;7.47;;;4.53;;
1410;SDS011;700;51.906;8.404;2023-04-24T20:22:56;7.37;;;4.33;;
1410;SDS011;700;51.906;8.404;2023-04-24T20:27:59;14.47;;;4.47;;
1410;SDS011;700;51.906;8.404;2023-04-24T20:33:02;9.60;;;4.33;;
1410;SDS011;700;51.906;8.404;2023-04-24T20:38:05;6.70;;;4.10;;
1410;SDS011;700;51.906;8.404;2023-04-24T20:43:09;4.93;;;3.43;;
1410;SDS011;700;51.906;8.404;2023-04-24T20:48:13;5.50;;;3.87;;
1410;SDS011;700;51.906;8.404;2023-04-24T20:53:13;9.13;;;4.13;;
1410;SDS011;700;51.906;8.404;2023-04-24T20:58:14;10.10;;;4.20;;
1410;SDS011;700;51.906;8.404;2023-04-24T21:03:17;11.03;;;4.67;;
1410;SDS011;700;51.906;8.404;2023-04-24T21:08:18;9.87;;;4.50;;
1410;SDS011;700;51.906;8.404;2023-04-24T21:13:18;12.10;;;4.90;;
1410;SDS011;700;51.906;8.404;2023-04-24T21:18:21;7.53;;;4.33;;
1410;SDS011;700;51.906;8.404;2023-04-24T21:23:22;12.10;;;5.10;;
1410;SDS011;700;51.906;8.404;2023-04-24T21:28:25;8.93;;;5.17;;
1410;SDS011;700;51.906;8.404;2023-04-24T21:33:26;9.60;;;4.70;;
1410;SDS011;700;51.906;8.404;2023-04-24T21:38:27;10.23;;;4.90;;
1410;SDS011;700;51.906;8.404;2023-04-24T21:43:28;12.13;;;5.70;;
1410;SDS011;700;51.906;8.404;2023-04-24T21:48:28;13.80;;;5.40;;
1410;SDS011;700;51.906;8.404;2023-04-24T21:53:34;13.87;;;5.67;;
1410;SDS011;700;51.906;8.404;2023-04-24T21:58:34;12.20;;;5.33;;
1410;SDS011;700;51.906;8.404;2023-04-24T22:03:38;9.70;;;4.70;;
1410;SDS011;700;51.906;8.404;2023-04-24T22:08:38;6.80;;;5.77;;
1410;SDS011;700;51.906;8.404;2023-04-24T22:13:40;11.40;;;6.63;;
1410;SDS011;700;51.906;8.404;2023-04-24T22:18:41;7.73;;;4.80;;
1410;SDS011;700;51.906;8.404;2023-04-24T22:23:41;7.80;;;5.40;;
1410;SDS011;700;51.906;8.404;2023-04-24T22:28:42;6.33;;;4.40;;
1410;SDS011;700;51.906;8.404;2023-04-24T22:33:43;13.33;;;5.70;;
1410;SDS011;700;51.906;8.404;2023-04-24T22:38:48;12.30;;;5.60;;
1410;SDS011;700;51.906;8.404;2023-04-24T22:43:50;12.90;;;5.13;;
1410;SDS011;700;51.906;8.404;2023-04-24T22:48:51;14.97;;;5.43;;
1410;SDS011;700;51.906;8.404;2023-04-24T22:53:53;9.87;;;5.50;;
1410;SDS011;700;51.906;8.404;2023-04-24T22:58:54;8.30;;;5.60;;
1410;SDS011;700;51.906;8.404;2023-04-24T23:03:54;12.13;;;5.43;;
1410;SDS011;700;51.906;8.404;2023-04-24T23:08:57;11.27;;;5.50;;
1410;SDS011;700;51.906;8.404;2023-04-24T23:14:01;13.73;;;6.43;;
1410;SDS011;700;51.906;8.404;2023-04-24T23:19:02;11.30;;;5.30;;
1410;SDS011;700;51.906;8.404;2023-04-24T23:24:06;14.57;;;6.07;;
1410;SDS011;700;51.906;8.404;2023-04-24T23:29:13;15.23;;;5.17;;
1410;SDS011;700;51.906;8.404;2023-04-24T23:34:14;14.23;;;5.70;;
1410;SDS011;700;51.906;8.404;2023-04-24T23:39:19;9.90;;;5.10;;
1410;SDS011;700;51.906;8.404;2023-04-24T23:44:24;12.40;;;4.77;;
1410;SDS011;700;51.906;8.404;2023-04-24T23:49:27;10.63;;;6.87;;
1410;SDS011;700;51.906;8.404;2023-04-24T23:54:28;18.97;;;6.30;;
1410;SDS011;700;51.906;8.404;2023-04-24T23:59:31;15.30;;;5.60;;
